sensor_id;sensor_type;location;lat;lon;timestamp;P1;durP1;ratioP1;P2;durP2;ratioP2
76752;SDS011;65687;51.308;16.916;2023-05-16T00:02:15;11.20;;;9.00;;
76752;SDS011;65687;51.308;16.916;2023-05-16T00:07:17;9.70;;;8.60;;
76752;SDS011;65687;51.308;16.916;2023-05-16T00:12:18;12.30;;;10.50;;
76752;SDS011;65687;51.308;16.916;2023-05-16T00:17:22;12.90;;;10.10;;
76752;SDS011;65687;51.308;16.916;2023-05-16T00:22:25;14.80;;;11.00;;
76752;SDS011;65687;51.308;16.916;2023-05-16T00:32:28;14.30;;;11.30;;
76752;SDS011;65687;51.308;16.916;2023-05-16T00:37:30;15.80;;;12.30;;
76752;SDS011;65687;51.308;16.916;2023-05-16T00:42:31;14.80;;;12.30;;
76752;SDS011;65687;51.308;16.916;2023-05-16T00:47:34;15.80;;;12.60;;
76752;SDS011;65687;51.308;16.916;2023-05-16T00:52:36;15.30;;;12.20;;
76752;SDS011;65687;51.308;16.916;2023-05-16T00:57:38;14.60;;;12.10;;
76752;SDS011;65687;51.308;16.916;2023-05-16T01:02:40;13.40;;;11.20;;
76752;SDS011;65687;51.308;16.916;2023-05-16T01:07:42;15.60;;;11.60;;
76752;SDS011;65687;51.308;16.916;2023-05-16T01:18:36;17.90;;;11.70;;
76752;SDS011;65687;51.308;16.916;2023-05-16T01:23:51;16.70;;;12.10;;
76752;SDS011;65687;51.308;16.916;2023-05-16T01:28:56;17.20;;;11.50;;
76752;SDS011;65687;51.308;16.916;2023-05-16T01:33:59;13.30;;;10.70;;
76752;SDS011;65687;51.308;16.916;2023-05-16T01:44:34;14.60;;;11.30;;
76752;SDS011;65687;51.308;16.916;2023-05-16T01:49:51;14.90;;;12.00;;
76752;SDS011;65687;51.308;16.916;2023-05-16T01:54:58;16.20;;;11.70;;
76752;SDS011;65687;51.308;16.916;2023-05-16T02:00:02;14.90;;;11.80;;
76752;SDS011;65687;51.308;16.916;2023-05-16T02:05:04;16.90;;;12.60;;
76752;SDS011;65687;51.308;16.916;2023-05-16T02:10:06;15.60;;;12.30;;
76752;SDS011;65687;51.308;16.916;2023-05-16T02:15:08;14.90;;;12.10;;
76752;SDS011;65687;51.308;16.916;2023-05-16T02:20:10;14.90;;;11.20;;
76752;SDS011;65687;51.308;16.916;2023-05-16T02:25:13;14.10;;;12.20;;
76752;SDS011;65687;51.308;16.916;2023-05-16T02:30:15;15.60;;;11.90;;
76752;SDS011;65687;51.308;16.916;2023-05-16T02:35:17;13.90;;;11.10;;
76752;SDS011;65687;51.308;16.916;2023-05-16T02:40:18;13.60;;;10.90;;
76752;SDS011;65687;51.308;16.916;2023-05-16T02:45:20;11.20;;;9.70;;
76752;SDS011;65687;51.308;16.916;2023-05-16T02:50:21;13.20;;;9.60;;
76752;SDS011;65687;51.308;16.916;2023-05-16T02:55:23;14.40;;;10.30;;
76752;SDS011;65687;51.308;16.916;2023-05-16T03:00:25;13.80;;;10.10;;
76752;SDS011;65687;51.308;16.916;2023-05-16T03:05:26;12.00;;;10.00;;
76752;SDS011;65687;51.308;16.916;2023-05-16T03:10:27;12.00;;;10.40;;
76752;SDS011;65687;51.308;16.916;2023-05-16T03:15:29;13.80;;;9.00;;
76752;SDS011;65687;51.308;16.916;2023-05-16T03:20:30;12.20;;;10.40;;
76752;SDS011;65687;51.308;16.916;2023-05-16T03:25:33;12.00;;;10.00;;
76752;SDS011;65687;51.308;16.916;2023-05-16T03:30:35;11.40;;;10.00;;
76752;SDS011;65687;51.308;16.916;2023-05-16T03:35:37;14.90;;;10.20;;
76752;SDS011;65687;51.308;16.916;2023-05-16T03:40:39;12.30;;;9.30;;
76752;SDS011;65687;51.308;16.916;2023-05-16T03:45:41;15.40;;;9.60;;
76752;SDS011;65687;51.308;16.916;2023-05-16T03:50:43;13.90;;;9.90;;
76752;SDS011;65687;51.308;16.916;2023-05-16T03:55:44;12.10;;;10.80;;
76752;SDS011;65687;51.308;16.916;2023-05-16T04:00:46;12.00;;;9.30;;
76752;SDS011;65687;51.308;16.916;2023-05-16T04:05:48;10.40;;;9.30;;
76752;SDS011;65687;51.308;16.916;2023-05-16T04:10:49;9.60;;;8.60;;
76752;SDS011;65687;51.308;16.916;2023-05-16T04:15:51;11.60;;;9.50;;
76752;SDS011;65687;51.308;16.916;2023-05-16T04:20:52;11.00;;;8.40;;
76752;SDS011;65687;51.308;16.916;2023-05-16T04:25:54;12.70;;;9.60;;
76752;SDS011;65687;51.308;16.916;2023-05-16T04:30:57;11.30;;;8.80;;
76752;SDS011;65687;51.308;16.916;2023-05-16T04:35:58;15.60;;;8.50;;
76752;SDS011;65687;51.308;16.916;2023-05-16T04:41:00;12.30;;;8.90;;
76752;SDS011;65687;51.308;16.916;2023-05-16T04:46:03;12.00;;;9.00;;
76752;SDS011;65687;51.308;16.916;2023-05-16T04:51:04;12.70;;;9.50;;
76752;SDS011;65687;51.308;16.916;2023-05-16T04:56:06;11.30;;;10.10;;
76752;SDS011;65687;51.308;16.916;2023-05-16T05:01:08;13.30;;;10.40;;
76752;SDS011;65687;51.308;16.916;2023-05-16T05:06:09;11.60;;;10.40;;
76752;SDS011;65687;51.308;16.916;2023-05-16T05:11:11;12.20;;;10.10;;
76752;SDS011;65687;51.308;16.916;2023-05-16T05:16:12;12.40;;;9.90;;
76752;SDS011;65687;51.308;16.916;2023-05-16T05:21:14;13.60;;;9.20;;
76752;SDS011;65687;51.308;16.916;2023-05-16T05:26:16;12.60;;;9.40;;
76752;SDS011;65687;51.308;16.916;2023-05-16T05:31:18;11.40;;;9.30;;
76752;SDS011;65687;51.308;16.916;2023-05-16T05:36:19;12.90;;;10.30;;
76752;SDS011;65687;51.308;16.916;2023-05-16T05:41:21;12.30;;;9.60;;
76752;SDS011;65687;51.308;16.916;2023-05-16T05:46:23;13.50;;;9.50;;
76752;SDS011;65687;51.308;16.916;2023-05-16T05:51:25;12.00;;;10.20;;
76752;SDS011;65687;51.308;16.916;2023-05-16T05:56:27;12.50;;;9.70;;
76752;SDS011;65687;51.308;16.916;2023-05-16T06:01:28;12.60;;;10.00;;
76752;SDS011;65687;51.308;16.916;2023-05-16T06:06:30;12.50;;;8.80;;
76752;SDS011;65687;51.308;16.916;2023-05-16T06:11:32;10.80;;;9.40;;
76752;SDS011;65687;51.308;16.916;2023-05-16T06:16:33;12.70;;;10.80;;
76752;SDS011;65687;51.308;16.916;2023-05-16T06:21:35;14.90;;;9.60;;
76752;SDS011;65687;51.308;16.916;2023-05-16T06:26:37;12.70;;;10.20;;
76752;SDS011;65687;51.308;16.916;2023-05-16T06:31:39;11.40;;;10.00;;
76752;SDS011;65687;51.308;16.916;2023-05-16T06:36:40;14.20;;;10.50;;
76752;SDS011;65687;51.308;16.916;2023-05-16T06:41:42;11.30;;;10.00;;
76752;SDS011;65687;51.308;16.916;2023-05-16T06:46:43;14.40;;;9.40;;
76752;SDS011;65687;51.308;16.916;2023-05-16T06:51:48;10.60;;;9.50;;
76752;SDS011;65687;51.308;16.916;2023-05-16T06:56:49;10.90;;;9.40;;
76752;SDS011;65687;51.308;16.916;2023-05-16T07:01:51;8.50;;;7.60;;
76752;SDS011;65687;51.308;16.916;2023-05-16T07:06:53;9.40;;;7.50;;
76752;SDS011;65687;51.308;16.916;2023-05-16T07:11:54;9.20;;;8.20;;
76752;SDS011;65687;51.308;16.916;2023-05-16T07:16:56;8.50;;;7.50;;
76752;SDS011;65687;51.308;16.916;2023-05-16T07:21:57;8.60;;;7.70;;
76752;SDS011;65687;51.308;16.916;2023-05-16T07:26:59;10.40;;;8.10;;
76752;SDS011;65687;51.308;16.916;2023-05-16T07:32:01;9.00;;;7.60;;
76752;SDS011;65687;51.308;16.916;2023-05-16T07:37:02;10.30;;;7.90;;
76752;SDS011;65687;51.308;16.916;2023-05-16T07:42:05;9.30;;;8.10;;
76752;SDS011;65687;51.308;16.916;2023-05-16T07:47:07;11.20;;;8.10;;
76752;SDS011;65687;51.308;16.916;2023-05-16T07:52:09;9.60;;;8.60;;
76752;SDS011;65687;51.308;16.916;2023-05-16T07:57:10;9.50;;;7.20;;
76752;SDS011;65687;51.308;16.916;2023-05-16T08:02:13;8.10;;;7.20;;
76752;SDS011;65687;51.308;16.916;2023-05-16T08:07:16;8.10;;;7.20;;
76752;SDS011;65687;51.308;16.916;2023-05-16T08:12:17;8.90;;;7.10;;
76752;SDS011;65687;51.308;16.916;2023-05-16T08:17:19;8.50;;;7.60;;
76752;SDS011;65687;51.308;16.916;2023-05-16T08:22:20;7.70;;;6.90;;
76752;SDS011;65687;51.308;16.916;2023-05-16T08:27:22;9.40;;;7.60;;
76752;SDS011;65687;51.308;16.916;2023-05-16T08:32:24;8.50;;;7.60;;
76752;SDS011;65687;51.308;16.916;2023-05-16T08:37:26;12.40;;;7.40;;
76752;SDS011;65687;51.308;16.916;2023-05-16T08:42:28;8.40;;;7.40;;
76752;SDS011;65687;51.308;16.916;2023-05-16T08:47:30;8.50;;;7.70;;
76752;SDS011;65687;51.308;16.916;2023-05-16T08:52:33;8.30;;;7.40;;
76752;SDS011;65687;51.308;16.916;2023-05-16T08:57:38;8.20;;;7.40;;
76752;SDS011;65687;51.308;16.916;2023-05-16T09:02:41;8.60;;;7.50;;
76752;SDS011;65687;51.308;16.916;2023-05-16T09:07:44;9.00;;;7.50;;
76752;SDS011;65687;51.308;16.916;2023-05-16T09:12:46;8.20;;;7.20;;
76752;SDS011;65687;51.308;16.916;2023-05-16T09:17:47;8.30;;;7.50;;
76752;SDS011;65687;51.308;16.916;2023-05-16T09:22:50;7.90;;;7.00;;
76752;SDS011;65687;51.308;16.916;2023-05-16T09:27:56;7.70;;;6.90;;
76752;SDS011;65687;51.308;16.916;2023-05-16T09:32:59;10.20;;;7.70;;
76752;SDS011;65687;51.308;16.916;2023-05-16T09:38:00;7.80;;;6.90;;
76752;SDS011;65687;51.308;16.916;2023-05-16T09:43:02;7.50;;;6.70;;
76752;SDS011;65687;51.308;16.916;2023-05-16T09:48:06;8.30;;;6.90;;
76752;SDS011;65687;51.308;16.916;2023-05-16T09:53:10;8.30;;;7.50;;
76752;SDS011;65687;51.308;16.916;2023-05-16T09:58:15;8.50;;;7.60;;
76752;SDS011;65687;51.308;16.916;2023-05-16T10:03:18;10.90;;;7.90;;
76752;SDS011;65687;51.308;16.916;2023-05-16T10:08:21;10.00;;;8.30;;
76752;SDS011;65687;51.308;16.916;2023-05-16T10:13:27;9.80;;;8.80;;
76752;SDS011;65687;51.308;16.916;2023-05-16T10:18:30;13.10;;;8.60;;
76752;SDS011;65687;51.308;16.916;2023-05-16T10:23:32;10.70;;;9.00;;
76752;SDS011;65687;51.308;16.916;2023-05-16T10:28:35;10.40;;;9.30;;
76752;SDS011;65687;51.308;16.916;2023-05-16T10:33:37;9.40;;;7.90;;
76752;SDS011;65687;51.308;16.916;2023-05-16T10:38:39;10.30;;;8.20;;
76752;SDS011;65687;51.308;16.916;2023-05-16T10:43:54;10.90;;;9.20;;
76752;SDS011;65687;51.308;16.916;2023-05-16T10:48:57;9.60;;;8.60;;
76752;SDS011;65687;51.308;16.916;2023-05-16T10:54:09;11.50;;;9.10;;
76752;SDS011;65687;51.308;16.916;2023-05-16T10:59:23;12.50;;;9.50;;
76752;SDS011;65687;51.308;16.916;2023-05-16T11:04:44;11.50;;;9.50;;
76752;SDS011;65687;51.308;16.916;2023-05-16T11:09:52;13.30;;;9.30;;
76752;SDS011;65687;51.308;16.916;2023-05-16T11:20:37;11.20;;;9.50;;
76752;SDS011;65687;51.308;16.916;2023-05-16T11:25:40;10.90;;;8.60;;
76752;SDS011;65687;51.308;16.916;2023-05-16T11:30:45;11.20;;;10.00;;
76752;SDS011;65687;51.308;16.916;2023-05-16T11:36:02;11.10;;;9.50;;
76752;SDS011;65687;51.308;16.916;2023-05-16T11:41:07;10.40;;;9.30;;
76752;SDS011;65687;51.308;16.916;2023-05-16T11:46:13;12.60;;;11.20;;
76752;SDS011;65687;51.308;16.916;2023-05-16T11:51:19;13.70;;;11.70;;
76752;SDS011;65687;51.308;16.916;2023-05-16T11:56:21;12.80;;;11.50;;
76752;SDS011;65687;51.308;16.916;2023-05-16T12:01:23;14.10;;;11.40;;
76752;SDS011;65687;51.308;16.916;2023-05-16T12:06:26;13.20;;;10.60;;
76752;SDS011;65687;51.308;16.916;2023-05-16T12:11:29;16.40;;;13.10;;
76752;SDS011;65687;51.308;16.916;2023-05-16T12:16:31;15.90;;;13.00;;
76752;SDS011;65687;51.308;16.916;2023-05-16T12:21:34;13.20;;;11.80;;
76752;SDS011;65687;51.308;16.916;2023-05-16T12:26:37;15.60;;;12.60;;
76752;SDS011;65687;51.308;16.916;2023-05-16T12:31:40;12.30;;;10.50;;
76752;SDS011;65687;51.308;16.916;2023-05-16T12:36:41;15.80;;;12.50;;
76752;SDS011;65687;51.308;16.916;2023-05-16T12:41:44;14.60;;;11.10;;
76752;SDS011;65687;51.308;16.916;2023-05-16T12:46:48;15.30;;;12.30;;
76752;SDS011;65687;51.308;16.916;2023-05-16T12:51:53;16.80;;;11.10;;
76752;SDS011;65687;51.308;16.916;2023-05-16T12:56:55;16.90;;;12.50;;
76752;SDS011;65687;51.308;16.916;2023-05-16T13:01:57;13.90;;;11.50;;
76752;SDS011;65687;51.308;16.916;2023-05-16T13:06:58;14.50;;;13.00;;
76752;SDS011;65687;51.308;16.916;2023-05-16T13:12:00;16.40;;;12.20;;
76752;SDS011;65687;51.308;16.916;2023-05-16T13:17:02;16.50;;;12.50;;
76752;SDS011;65687;51.308;16.916;2023-05-16T13:22:04;14.00;;;11.20;;
76752;SDS011;65687;51.308;16.916;2023-05-16T13:27:06;16.00;;;13.10;;
76752;SDS011;65687;51.308;16.916;2023-05-16T13:32:07;16.70;;;12.00;;
76752;SDS011;65687;51.308;16.916;2023-05-16T13:37:09;22.30;;;16.00;;
76752;SDS011;65687;51.308;16.916;2023-05-16T13:42:11;22.80;;;15.30;;
76752;SDS011;65687;51.308;16.916;2023-05-16T13:47:12;23.30;;;15.90;;
76752;SDS011;65687;51.308;16.916;2023-05-16T13:52:14;24.90;;;16.40;;
76752;SDS011;65687;51.308;16.916;2023-05-16T13:57:15;24.90;;;16.60;;
76752;SDS011;65687;51.308;16.916;2023-05-16T14:02:17;22.40;;;15.70;;
76752;SDS011;65687;51.308;16.916;2023-05-16T14:07:19;26.80;;;17.30;;
76752;SDS011;65687;51.308;16.916;2023-05-16T14:12:20;25.40;;;16.40;;
76752;SDS011;65687;51.308;16.916;2023-05-16T14:17:22;21.50;;;14.90;;
76752;SDS011;65687;51.308;16.916;2023-05-16T14:22:23;26.00;;;17.90;;
76752;SDS011;65687;51.308;16.916;2023-05-16T14:27:25;23.70;;;16.40;;
76752;SDS011;65687;51.308;16.916;2023-05-16T14:32:27;25.40;;;14.90;;
76752;SDS011;65687;51.308;16.916;2023-05-16T14:37:28;21.90;;;15.00;;
76752;SDS011;65687;51.308;16.916;2023-05-16T14:42:30;22.00;;;14.70;;
76752;SDS011;65687;51.308;16.916;2023-05-16T14:47:32;19.20;;;12.80;;
76752;SDS011;65687;51.308;16.916;2023-05-16T14:52:33;21.90;;;13.60;;
76752;SDS011;65687;51.308;16.916;2023-05-16T14:57:35;21.00;;;13.60;;
76752;SDS011;65687;51.308;16.916;2023-05-16T15:02:36;20.20;;;13.30;;
76752;SDS011;65687;51.308;16.916;2023-05-16T15:07:38;18.90;;;13.00;;
76752;SDS011;65687;51.308;16.916;2023-05-16T15:12:39;18.60;;;12.70;;
76752;SDS011;65687;51.308;16.916;2023-05-16T15:17:43;18.30;;;13.30;;
76752;SDS011;65687;51.308;16.916;2023-05-16T15:22:45;18.00;;;11.20;;
76752;SDS011;65687;51.308;16.916;2023-05-16T15:27:47;18.10;;;13.80;;
76752;SDS011;65687;51.308;16.916;2023-05-16T15:32:49;25.80;;;15.80;;
76752;SDS011;65687;51.308;16.916;2023-05-16T15:37:50;20.70;;;14.40;;
76752;SDS011;65687;51.308;16.916;2023-05-16T15:42:53;21.60;;;14.80;;
76752;SDS011;65687;51.308;16.916;2023-05-16T15:47:54;20.60;;;13.40;;
76752;SDS011;65687;51.308;16.916;2023-05-16T15:52:56;20.10;;;13.70;;
76752;SDS011;65687;51.308;16.916;2023-05-16T15:57:58;18.50;;;13.00;;
76752;SDS011;65687;51.308;16.916;2023-05-16T16:03:00;18.90;;;14.10;;
76752;SDS011;65687;51.308;16.916;2023-05-16T16:08:01;17.50;;;12.10;;
76752;SDS011;65687;51.308;16.916;2023-05-16T16:13:03;19.80;;;12.70;;
76752;SDS011;65687;51.308;16.916;2023-05-16T16:18:05;19.50;;;12.90;;
76752;SDS011;65687;51.308;16.916;2023-05-16T16:23:06;17.20;;;13.40;;
76752;SDS011;65687;51.308;16.916;2023-05-16T16:28:08;20.50;;;13.40;;
76752;SDS011;65687;51.308;16.916;2023-05-16T16:33:10;19.90;;;13.10;;
76752;SDS011;65687;51.308;16.916;2023-05-16T16:38:11;17.50;;;13.10;;
76752;SDS011;65687;51.308;16.916;2023-05-16T16:43:13;18.20;;;12.60;;
76752;SDS011;65687;51.308;16.916;2023-05-16T16:48:15;21.60;;;13.50;;
76752;SDS011;65687;51.308;16.916;2023-05-16T16:53:17;16.90;;;12.70;;
76752;SDS011;65687;51.308;16.916;2023-05-16T16:58:19;19.00;;;13.60;;
76752;SDS011;65687;51.308;16.916;2023-05-16T17:03:20;19.50;;;13.10;;
76752;SDS011;65687;51.308;16.916;2023-05-16T17:08:22;22.60;;;13.90;;
76752;SDS011;65687;51.308;16.916;2023-05-16T17:13:23;19.00;;;13.80;;
76752;SDS011;65687;51.308;16.916;2023-05-16T17:18:25;20.40;;;14.00;;
76752;SDS011;65687;51.308;16.916;2023-05-16T17:23:27;21.10;;;13.60;;
76752;SDS011;65687;51.308;16.916;2023-05-16T17:28:29;19.20;;;13.20;;
76752;SDS011;65687;51.308;16.916;2023-05-16T17:33:32;18.40;;;13.10;;
76752;SDS011;65687;51.308;16.916;2023-05-16T17:38:34;18.80;;;12.90;;
76752;SDS011;65687;51.308;16.916;2023-05-16T17:43:35;20.30;;;13.40;;
76752;SDS011;65687;51.308;16.916;2023-05-16T17:48:37;20.60;;;14.70;;
76752;SDS011;65687;51.308;16.916;2023-05-16T17:58:41;18.30;;;13.10;;
76752;SDS011;65687;51.308;16.916;2023-05-16T18:03:42;21.30;;;14.90;;
76752;SDS011;65687;51.308;16.916;2023-05-16T18:08:44;25.80;;;15.90;;
76752;SDS011;65687;51.308;16.916;2023-05-16T18:13:45;24.10;;;15.80;;
76752;SDS011;65687;51.308;16.916;2023-05-16T18:18:47;24.80;;;17.40;;
76752;SDS011;65687;51.308;16.916;2023-05-16T18:23:49;27.90;;;18.30;;
76752;SDS011;65687;51.308;16.916;2023-05-16T18:28:51;25.60;;;16.80;;
76752;SDS011;65687;51.308;16.916;2023-05-16T18:33:52;26.10;;;17.00;;
76752;SDS011;65687;51.308;16.916;2023-05-16T18:43:56;26.00;;;16.80;;
76752;SDS011;65687;51.308;16.916;2023-05-16T18:48:58;27.80;;;18.20;;
76752;SDS011;65687;51.308;16.916;2023-05-16T18:53:59;30.10;;;18.60;;
76752;SDS011;65687;51.308;16.916;2023-05-16T18:59:01;28.50;;;17.80;;
76752;SDS011;65687;51.308;16.916;2023-05-16T19:04:02;27.20;;;18.10;;
76752;SDS011;65687;51.308;16.916;2023-05-16T19:09:04;25.50;;;17.50;;
76752;SDS011;65687;51.308;16.916;2023-05-16T19:14:07;25.40;;;18.50;;
76752;SDS011;65687;51.308;16.916;2023-05-16T19:19:09;26.40;;;18.20;;
76752;SDS011;65687;51.308;16.916;2023-05-16T19:24:10;25.80;;;17.50;;
76752;SDS011;65687;51.308;16.916;2023-05-16T19:29:12;21.10;;;15.20;;
76752;SDS011;65687;51.308;16.916;2023-05-16T19:34:14;21.40;;;14.50;;
76752;SDS011;65687;51.308;16.916;2023-05-16T19:39:15;26.60;;;17.30;;
76752;SDS011;65687;51.308;16.916;2023-05-16T19:44:17;20.90;;;13.90;;
76752;SDS011;65687;51.308;16.916;2023-05-16T19:49:18;20.80;;;14.50;;
76752;SDS011;65687;51.308;16.916;2023-05-16T19:54:20;20.40;;;14.00;;
76752;SDS011;65687;51.308;16.916;2023-05-16T19:59:21;23.80;;;14.40;;
76752;SDS011;65687;51.308;16.916;2023-05-16T20:04:23;21.80;;;15.60;;
76752;SDS011;65687;51.308;16.916;2023-05-16T20:09:25;22.50;;;15.40;;
76752;SDS011;65687;51.308;16.916;2023-05-16T20:14:28;23.20;;;16.10;;
76752;SDS011;65687;51.308;16.916;2023-05-16T20:19:30;20.50;;;12.90;;
76752;SDS011;65687;51.308;16.916;2023-05-16T20:24:31;24.30;;;15.00;;
76752;SDS011;65687;51.308;16.916;2023-05-16T20:29:33;20.80;;;14.80;;
76752;SDS011;65687;51.308;16.916;2023-05-16T20:34:35;21.70;;;14.30;;
76752;SDS011;65687;51.308;16.916;2023-05-16T20:39:37;19.80;;;14.70;;
76752;SDS011;65687;51.308;16.916;2023-05-16T20:44:39;23.60;;;14.20;;
76752;SDS011;65687;51.308;16.916;2023-05-16T20:49:41;18.40;;;13.50;;
76752;SDS011;65687;51.308;16.916;2023-05-16T20:54:43;18.40;;;13.60;;
76752;SDS011;65687;51.308;16.916;2023-05-16T20:59:45;21.80;;;15.20;;
76752;SDS011;65687;51.308;16.916;2023-05-16T21:04:46;21.80;;;13.30;;
76752;SDS011;65687;51.308;16.916;2023-05-16T21:09:48;18.10;;;12.30;;
76752;SDS011;65687;51.308;16.916;2023-05-16T21:14:49;16.30;;;12.30;;
76752;SDS011;65687;51.308;16.916;2023-05-16T21:19:51;18.10;;;12.20;;
76752;SDS011;65687;51.308;16.916;2023-05-16T21:24:52;19.40;;;12.90;;
76752;SDS011;65687;51.308;16.916;2023-05-16T21:29:53;16.60;;;12.40;;
76752;SDS011;65687;51.308;16.916;2023-05-16T21:34:55;16.30;;;12.30;;
76752;SDS011;65687;51.308;16.916;2023-05-16T21:39:56;19.20;;;12.30;;
76752;SDS011;65687;51.308;16.916;2023-05-16T21:44:58;18.40;;;13.30;;
76752;SDS011;65687;51.308;16.916;2023-05-16T21:50:00;16.70;;;11.80;;
76752;SDS011;65687;51.308;16.916;2023-05-16T21:55:02;17.20;;;11.70;;
76752;SDS011;65687;51.308;16.916;2023-05-16T22:00:04;17.90;;;12.60;;
76752;SDS011;65687;51.308;16.916;2023-05-16T22:05:09;17.90;;;11.70;;
76752;SDS011;65687;51.308;16.916;2023-05-16T22:10:11;17.80;;;13.00;;
76752;SDS011;65687;51.308;16.916;2023-05-16T22:15:12;19.70;;;12.20;;
76752;SDS011;65687;51.308;16.916;2023-05-16T22:20:14;17.20;;;11.70;;
76752;SDS011;65687;51.308;16.916;2023-05-16T22:25:15;20.10;;;13.20;;
76752;SDS011;65687;51.308;16.916;2023-05-16T22:30:17;17.40;;;12.40;;
76752;SDS011;65687;51.308;16.916;2023-05-16T22:35:18;19.30;;;12.40;;
76752;SDS011;65687;51.308;16.916;2023-05-16T22:40:20;19.30;;;11.90;;
76752;SDS011;65687;51.308;16.916;2023-05-16T22:45:21;15.70;;;12.00;;
76752;SDS011;65687;51.308;16.916;2023-05-16T22:50:23;18.10;;;12.10;;
76752;SDS011;65687;51.308;16.916;2023-05-16T22:55:24;13.50;;;10.10;;
76752;SDS011;65687;51.308;16.916;2023-05-16T23:00:26;15.40;;;11.60;;
76752;SDS011;65687;51.308;16.916;2023-05-16T23:05:27;17.50;;;11.80;;
76752;SDS011;65687;51.308;16.916;2023-05-16T23:10:29;16.70;;;11.40;;
76752;SDS011;65687;51.308;16.916;2023-05-16T23:15:31;15.30;;;11.00;;
76752;SDS011;65687;51.308;16.916;2023-05-16T23:20:33;15.40;;;10.50;;
76752;SDS011;65687;51.308;16.916;2023-05-16T23:25:34;17.00;;;11.50;;
76752;SDS011;65687;51.308;16.916;2023-05-16T23:30:36;15.80;;;11.40;;
76752;SDS011;65687;51.308;16.916;2023-05-16T23:35:38;14.80;;;10.30;;
76752;SDS011;65687;51.308;16.916;2023-05-16T23:40:39;16.30;;;11.50;;
76752;SDS011;65687;51.308;16.916;2023-05-16T23:45:41;13.50;;;10.40;;
76752;SDS011;65687;51.308;16.916;2023-05-16T23:50:42;18.40;;;11.10;;
76752;SDS011;65687;51.308;16.916;2023-05-16T23:55:44;14.60;;;10.30;;
